Time;durP1;ratioP1;P1;durP2;ratioP2;P2;SDS_P1;SDS_P2;PMS_P1;PMS_P2;Temp;Humidity;BMP_temperature;BMP_pressure;BME280_temperature;BME280_humidity;BME280_pressure;Samples;Min_cycle;Max_cycle;Signal;HPM_P1;HPM_P2
2021/05/14 00:01:07;;;;;;;11.57;10.38;;;9.50;91.70;;;;;;5128374;27;20055;-50
2021/05/14 00:03:33;;;;;;;14.05;10.65;;;9.60;91.70;;;;;;5125942;27;20139;-48
2021/05/14 00:06:00;;;;;;;10.68;9.68;;;9.50;91.80;;;;;;5128405;27;20062;-51
2021/05/14 00:08:26;;;;;;;11.20;9.45;;;9.40;91.80;;;;;;5111380;27;20096;-49
2021/05/14 00:10:54;;;;;;;11.20;9.75;;;9.50;91.90;;;;;;5134079;27;20087;-55
2021/05/14 00:13:20;;;;;;;10.88;9.73;;;9.40;91.70;;;;;;5129206;27;20047;-55
2021/05/14 00:15:47;;;;;;;10.60;9.60;;;9.20;92.10;;;;;;5129712;27;20043;-52
2021/05/14 00:18:13;;;;;;;11.35;9.27;;;9.20;92.00;;;;;;5128259;27;20122;-55
2021/05/14 00:20:41;;;;;;;10.38;9.27;;;9.30;92.10;;;;;;5128721;27;20078;-52
2021/05/14 00:23:10;;;;;;;12.18;10.95;;;9.30;91.80;;;;;;5128879;27;20051;-54
2021/05/14 00:25:37;;;;;;;10.38;9.38;;;9.30;91.80;;;;;;5127851;27;20180;-51
2021/05/14 00:28:03;;;;;;;10.77;9.73;;;9.20;91.70;;;;;;5125592;27;20051;-54
2021/05/14 00:30:29;;;;;;;10.88;9.85;;;9.20;91.80;;;;;;5126587;27;20074;-53
2021/05/14 00:32:56;;;;;;;10.55;8.57;;;9.20;92.10;;;;;;5128532;27;20506;-53
2021/05/14 00:35:23;;;;;;;11.32;10.13;;;9.20;91.90;;;;;;5129207;27;20051;-56
2021/05/14 00:37:51;;;;;;;12.05;10.85;;;9.20;91.90;;;;;;5129180;27;20054;-50
2021/05/14 00:40:20;;;;;;;10.80;9.70;;;9.20;91.80;;;;;;5129573;27;20043;-54
2021/05/14 00:42:46;;;;;;;10.98;9.95;;;9.20;91.90;;;;;;5127988;27;20050;-50
2021/05/14 00:45:13;;;;;;;10.82;9.48;;;9.20;91.90;;;;;;5124465;27;20092;-52
2021/05/14 00:47:40;;;;;;;11.63;10.27;;;9.20;92.10;;;;;;5128077;27;20077;-50
2021/05/14 00:50:12;;;;;;;10.88;9.88;;;9.10;92.10;;;;;;5126216;27;20043;-53
2021/05/14 00:52:41;;;;;;;11.07;10.07;;;9.20;92.20;;;;;;5128392;27;20047;-55
2021/05/14 00:55:10;;;;;;;10.93;9.75;;;9.10;92.30;;;;;;5127574;27;20058;-54
2021/05/14 00:57:37;;;;;;;10.32;9.32;;;9.20;92.30;;;;;;5107307;27;20100;-50
2021/05/14 01:00:04;;;;;;;11.68;10.05;;;9.20;92.10;;;;;;5123837;27;20054;-52
2021/05/14 01:02:30;;;;;;;11.20;10.02;;;9.10;92.10;;;;;;5128907;27;20046;-52
2021/05/14 01:04:57;;;;;;;11.10;10.07;;;9.10;92.20;;;;;;5127841;27;20047;-53
2021/05/14 01:07:23;;;;;;;11.13;10.02;;;9.10;92.30;;;;;;5127843;27;20047;-55
2021/05/14 01:09:51;;;;;;;11.85;10.73;;;9.10;92.20;;;;;;5127745;27;20039;-54
2021/05/14 01:12:18;;;;;;;12.80;10.95;;;9.10;92.40;;;;;;5131489;27;20039;-55
2021/05/14 01:14:44;;;;;;;10.90;9.82;;;9.20;92.40;;;;;;5126259;27;20635;-55
2021/05/14 01:17:13;;;;;;;11.88;10.77;;;9.10;92.40;;;;;;5127388;27;20043;-52
2021/05/14 01:19:40;;;;;;;11.95;10.25;;;9.20;92.50;;;;;;5127467;27;20095;-54
2021/05/14 01:22:06;;;;;;;12.98;11.68;;;9.10;92.50;;;;;;5130895;27;20058;-53
2021/05/14 01:24:33;;;;;;;11.77;10.57;;;9.10;92.40;;;;;;5127592;27;20115;-52
2021/05/14 01:27:02;;;;;;;13.82;12.52;;;9.00;92.40;;;;;;5125344;27;20039;-50
2021/05/14 01:29:32;;;;;;;14.50;13.10;;;9.10;92.40;;;;;;5122923;27;20054;-50
2021/05/14 01:31:58;;;;;;;14.10;12.65;;;9.10;92.40;;;;;;5127388;27;20531;-51
2021/05/14 01:34:24;;;;;;;14.73;13.23;;;9.00;92.40;;;;;;5120125;27;20483;-54
2021/05/14 01:36:50;;;;;;;15.50;13.95;;;9.00;92.50;;;;;;5107772;28;20048;-51
2021/05/14 01:39:21;;;;;;;15.18;13.73;;;9.00;92.40;;;;;;5122650;27;20047;-49
2021/05/14 01:41:48;;;;;;;15.82;14.23;;;9.10;92.50;;;;;;5126911;27;20069;-53
2021/05/14 01:44:14;;;;;;;14.85;13.25;;;9.10;92.40;;;;;;5127249;27;20077;-54
2021/05/14 01:46:40;;;;;;;16.95;15.25;;;9.00;92.40;;;;;;5126900;27;20054;-51
2021/05/14 01:49:06;;;;;;;16.77;15.07;;;9.10;92.40;;;;;;5127006;27;20057;-52
2021/05/14 01:51:36;;;;;;;16.48;14.82;;;9.10;92.30;;;;;;5127208;27;20051;-53
2021/05/14 01:54:02;;;;;;;17.52;15.82;;;9.10;92.50;;;;;;5127405;27;20061;-54
2021/05/14 01:56:30;;;;;;;15.50;14.02;;;9.10;92.40;;;;;;5126973;27;20070;-51
2021/05/14 01:58:57;;;;;;;18.80;16.00;;;9.10;92.30;;;;;;5125889;27;20054;-51
2021/05/14 02:01:23;;;;;;;17.67;16.00;;;9.10;92.30;;;;;;5128749;27;20498;-56
2021/05/14 02:03:54;;;;;;;16.48;14.82;;;9.10;92.40;;;;;;5127276;27;20055;-51
2021/05/14 02:06:23;;;;;;;16.23;14.52;;;9.00;92.50;;;;;;5126813;27;20156;-54
2021/05/14 02:08:50;;;;;;;16.58;14.57;;;9.00;92.40;;;;;;5125602;27;20062;-52
2021/05/14 02:11:16;;;;;;;16.38;14.75;;;8.90;92.50;;;;;;5125533;27;20055;-52
2021/05/14 02:13:44;;;;;;;17.33;15.52;;;9.00;92.40;;;;;;5131972;27;20457;-51
2021/05/14 02:16:11;;;;;;;16.48;14.85;;;9.00;92.50;;;;;;5097132;28;20535;-55
2021/05/14 02:18:38;;;;;;;17.83;16.05;;;9.00;92.50;;;;;;5126681;27;20049;-52
2021/05/14 02:21:05;;;;;;;17.48;15.18;;;9.00;92.50;;;;;;5126554;27;20676;-53
2021/05/14 02:23:32;;;;;;;17.48;15.68;;;9.10;92.70;;;;;;5127158;27;20051;-53
2021/05/14 02:25:58;;;;;;;17.98;16.20;;;9.00;92.50;;;;;;5125096;27;20097;-54
2021/05/14 02:28:24;;;;;;;17.50;15.73;;;9.00;92.70;;;;;;5123697;27;20122;-53
2021/05/14 02:30:50;;;;;;;18.40;16.50;;;9.00;92.70;;;;;;5126502;27;20077;-54
2021/05/14 02:33:16;;;;;;;17.55;15.50;;;9.00;92.90;;;;;;5126810;27;20046;-55
2021/05/14 02:35:43;;;;;;;18.95;17.10;;;9.00;93.00;;;;;;5126776;28;20039;-53
2021/05/14 02:38:09;;;;;;;20.33;16.63;;;8.90;93.10;;;;;;5126031;28;20039;-54
2021/05/14 02:40:38;;;;;;;19.10;17.20;;;8.90;93.10;;;;;;5127470;28;20051;-55
2021/05/14 02:43:05;;;;;;;18.15;16.45;;;9.00;93.40;;;;;;5126497;28;20043;-53
2021/05/14 02:45:31;;;;;;;17.50;15.80;;;9.00;93.30;;;;;;5128854;27;20047;-54
2021/05/14 02:47:58;;;;;;;18.35;16.00;;;9.00;93.20;;;;;;5123959;28;20432;-54
2021/05/14 02:50:24;;;;;;;19.02;16.48;;;9.10;93.10;;;;;;5125621;28;20047;-55
2021/05/14 02:52:51;;;;;;;18.23;16.42;;;9.10;93.00;;;;;;5134438;27;20043;-54
2021/05/14 02:55:18;;;;;;;18.77;16.98;;;9.10;93.00;;;;;;5130693;27;20049;-51
2021/05/14 02:57:44;;;;;;;18.45;16.52;;;9.10;93.10;;;;;;5129898;27;20146;-52
2021/05/14 03:00:12;;;;;;;18.27;16.40;;;9.10;93.30;;;;;;5128084;27;20051;-53
2021/05/14 03:02:40;;;;;;;18.23;16.35;;;9.10;93.40;;;;;;5124612;27;20043;-56
2021/05/14 03:05:08;;;;;;;17.05;15.45;;;9.10;93.20;;;;;;5110018;27;20059;-55
2021/05/14 03:07:34;;;;;;;17.38;15.68;;;9.10;93.00;;;;;;5129600;27;20043;-55
2021/05/14 03:10:00;;;;;;;15.95;14.35;;;9.00;93.00;;;;;;5129801;27;20069;-56
2021/05/14 03:12:27;;;;;;;17.15;15.52;;;9.10;92.80;;;;;;5133831;27;20557;-53
2021/05/14 03:14:54;;;;;;;18.15;16.35;;;9.00;92.90;;;;;;5128724;27;20528;-53
2021/05/14 03:17:20;;;;;;;18.75;16.80;;;9.00;92.90;;;;;;5129259;27;20039;-52
2021/05/14 03:19:46;;;;;;;17.63;15.68;;;9.00;93.10;;;;;;5128879;27;20053;-54
2021/05/14 03:22:12;;;;;;;17.52;15.82;;;9.00;93.10;;;;;;5132501;27;20046;-54
2021/05/14 03:24:38;;;;;;;18.80;16.90;;;9.00;93.10;;;;;;5128022;27;20039;-55
2021/05/14 03:27:05;;;;;;;19.58;17.63;;;8.90;93.00;;;;;;5128777;27;20058;-55
2021/05/14 03:29:33;;;;;;;17.13;15.48;;;8.90;93.40;;;;;;5110455;27;20054;-55
2021/05/14 03:32:00;;;;;;;18.77;16.98;;;8.90;93.30;;;;;;5128050;27;20070;-54
2021/05/14 03:34:26;;;;;;;18.48;16.60;;;8.90;93.10;;;;;;5129486;27;20047;-55
2021/05/14 03:36:52;;;;;;;18.63;16.70;;;9.00;93.00;;;;;;5129088;27;20055;-51
2021/05/14 03:39:22;;;;;;;17.52;15.63;;;9.00;93.20;;;;;;5129071;27;20096;-53
2021/05/14 03:41:53;;;;;;;17.65;15.88;;;9.00;93.20;;;;;;5129224;27;20554;-55
2021/05/14 03:44:19;;;;;;;16.42;14.82;;;9.00;93.30;;;;;;5125489;27;20071;-55
2021/05/14 03:46:45;;;;;;;17.35;15.65;;;9.00;93.00;;;;;;5128807;27;20070;-53
2021/05/14 03:49:12;;;;;;;17.23;15.52;;;9.00;93.10;;;;;;5128582;27;20116;-52
2021/05/14 03:51:38;;;;;;;17.77;16.08;;;9.00;93.10;;;;;;5129870;27;20039;-52
2021/05/14 03:54:05;;;;;;;17.35;15.75;;;9.00;93.10;;;;;;5130877;27;20051;-54
2021/05/14 03:56:32;;;;;;;17.20;15.57;;;9.00;93.20;;;;;;5130000;27;20043;-52
2021/05/14 03:59:02;;;;;;;18.40;16.60;;;9.00;93.00;;;;;;5124249;27;20051;-52
2021/05/14 04:01:29;;;;;;;18.33;16.55;;;9.00;93.00;;;;;;5127232;27;20039;-56
2021/05/14 04:03:55;;;;;;;18.50;16.55;;;9.00;93.00;;;;;;5129154;27;20055;-55
2021/05/14 04:06:21;;;;;;;19.38;17.38;;;9.00;93.00;;;;;;5135665;27;20066;-52
2021/05/14 04:08:47;;;;;;;18.42;16.67;;;9.10;92.90;;;;;;5128685;27;20051;-50
2021/05/14 04:16:37;;;;;;;20.40;18.30;;;9.10;93.00;;;;;;5128094;27;20752;-55
2021/05/14 04:19:03;;;;;;;18.67;16.77;;;9.10;93.00;;;;;;5136209;27;20091;-55
2021/05/14 04:21:29;;;;;;;17.70;15.88;;;9.10;93.10;;;;;;5128558;27;20138;-54
2021/05/14 04:23:55;;;;;;;18.60;16.80;;;9.20;93.00;;;;;;5129504;27;20150;-54
2021/05/14 04:26:22;;;;;;;18.20;16.33;;;9.20;92.90;;;;;;5129048;27;20066;-52
2021/05/14 04:28:48;;;;;;;17.73;16.02;;;9.20;92.90;;;;;;5124304;27;20057;-55
2021/05/14 04:31:14;;;;;;;17.90;15.90;;;9.20;92.80;;;;;;5128902;27;20402;-55
2021/05/14 04:33:40;;;;;;;19.15;16.85;;;9.30;92.90;;;;;;5129213;27;20046;-55
2021/05/14 04:36:06;;;;;;;15.95;13.95;;;9.30;92.90;;;;;;5128634;27;20133;-54
2021/05/14 04:38:32;;;;;;;16.08;14.48;;;9.20;92.60;;;;;;5101360;27;20150;-52
2021/05/14 04:40:58;;;;;;;15.70;14.20;;;9.50;93.00;;;;;;5135064;27;20077;-53
2021/05/14 04:43:24;;;;;;;16.83;15.13;;;9.50;92.30;;;;;;5126678;27;20055;-51
2021/05/14 04:45:51;;;;;;;17.25;15.55;;;9.60;92.30;;;;;;5126951;27;20065;-53
2021/05/14 04:48:17;;;;;;;15.82;14.13;;;9.70;92.20;;;;;;5125162;27;20066;-49
2021/05/14 04:50:45;;;;;;;16.40;14.70;;;9.60;92.10;;;;;;5123395;27;20050;-55
2021/05/14 04:53:13;;;;;;;17.50;14.88;;;9.70;92.30;;;;;;5131708;27;20505;-51
2021/05/14 04:55:40;;;;;;;16.67;15.05;;;9.70;92.20;;;;;;5125699;27;20047;-54
2021/05/14 04:58:06;;;;;;;16.38;14.70;;;9.80;92.00;;;;;;5124513;27;20054;-49
2021/05/14 05:00:33;;;;;;;17.60;15.75;;;9.70;92.00;;;;;;5120860;27;20047;-51
2021/05/14 05:03:00;;;;;;;15.98;14.38;;;9.80;92.00;;;;;;5125660;27;20054;-55
2021/05/14 05:05:27;;;;;;;15.82;14.23;;;9.90;92.00;;;;;;5130535;27;21019;-51
2021/05/14 05:07:53;;;;;;;16.85;15.13;;;9.90;91.70;;;;;;5124612;27;20062;-52
2021/05/14 05:10:21;;;;;;;17.45;15.45;;;9.90;91.70;;;;;;5114033;27;20100;-55
2021/05/14 05:12:48;;;;;;;16.08;14.27;;;10.00;91.70;;;;;;5110968;27;20047;-54
2021/05/14 05:15:14;;;;;;;16.00;14.43;;;10.00;91.70;;;;;;5112797;27;20048;-53
2021/05/14 05:17:41;;;;;;;16.02;14.30;;;9.90;91.70;;;;;;5114639;27;20058;-52
2021/05/14 05:20:09;;;;;;;16.00;14.30;;;10.00;91.80;;;;;;5123641;27;20498;-50
2021/05/14 05:22:36;;;;;;;16.00;14.05;;;10.00;91.60;;;;;;5125340;27;20070;-53
2021/05/14 05:25:03;;;;;;;14.82;13.30;;;10.00;91.60;;;;;;5127332;27;20051;-54
2021/05/14 05:27:30;;;;;;;15.68;13.38;;;10.00;91.70;;;;;;5124082;27;20051;-51
2021/05/14 05:29:56;;;;;;;16.25;14.10;;;10.00;91.60;;;;;;5119747;27;20092;-53
2021/05/14 05:32:22;;;;;;;15.00;13.27;;;10.00;91.30;;;;;;5125294;27;20054;-55
2021/05/14 05:34:49;;;;;;;14.75;13.15;;;10.00;91.80;;;;;;5125897;27;20092;-54
2021/05/14 05:37:15;;;;;;;15.07;13.50;;;10.10;91.50;;;;;;5125346;27;20047;-53
2021/05/14 05:39:41;;;;;;;14.73;12.18;;;10.20;91.50;;;;;;5125179;27;20039;-53
2021/05/14 05:42:08;;;;;;;14.30;12.73;;;10.10;91.00;;;;;;5125455;27;20131;-53
2021/05/14 05:44:34;;;;;;;17.20;13.10;;;10.10;91.10;;;;;;5125819;27;20209;-51
2021/05/14 05:47:00;;;;;;;14.63;12.75;;;10.10;91.00;;;;;;5123332;27;20050;-51
2021/05/14 05:49:26;;;;;;;17.65;13.50;;;10.00;90.90;;;;;;5127340;27;20605;-53
2021/05/14 05:51:53;;;;;;;14.20;12.13;;;10.00;91.30;;;;;;5127505;27;20168;-50
2021/05/14 05:54:22;;;;;;;14.90;12.82;;;10.00;90.90;;;;;;5127071;27;20043;-53
2021/05/14 05:56:50;;;;;;;17.75;13.63;;;10.00;91.30;;;;;;5106297;27;20547;-54
2021/05/14 05:59:20;;;;;;;13.60;10.85;;;10.00;91.20;;;;;;5123230;27;20136;-53
2021/05/14 06:01:46;;;;;;;14.07;11.18;;;10.10;91.00;;;;;;5123060;27;20047;-50
2021/05/14 06:04:13;;;;;;;15.98;12.45;;;10.20;91.10;;;;;;5127253;27;20046;-47
2021/05/14 06:06:39;;;;;;;12.40;10.57;;;10.40;90.90;;;;;;5119530;27;20066;-48
2021/05/14 06:09:05;;;;;;;15.88;10.32;;;10.30;90.20;;;;;;5115702;27;20051;-50
2021/05/14 06:11:31;;;;;;;16.55;11.82;;;10.30;90.20;;;;;;5129129;27;20039;-49
2021/05/14 06:13:58;;;;;;;14.98;9.57;;;10.30;90.30;;;;;;5120583;27;21730;-48
2021/05/14 06:16:24;;;;;;;18.45;11.93;;;10.20;90.10;;;;;;5123783;27;20047;-51
2021/05/14 06:18:57;;;;;;;13.27;9.57;;;10.20;90.30;;;;;;5118930;27;20151;-51
2021/05/14 06:21:23;;;;;;;11.25;8.30;;;10.50;90.20;;;;;;5118318;27;20074;-49
2021/05/14 06:23:49;;;;;;;12.57;9.82;;;10.40;89.40;;;;;;5103652;28;20056;-48
2021/05/14 06:26:15;;;;;;;14.88;9.45;;;10.40;89.30;;;;;;5113413;27;20043;-51
2021/05/14 06:28:42;;;;;;;11.82;8.23;;;10.40;89.30;;;;;;5091236;27;20051;-49
2021/05/14 06:31:08;;;;;;;13.85;9.07;;;10.50;88.80;;;;;;5125083;27;20066;-51
2021/05/14 06:33:34;;;;;;;13.30;8.98;;;10.60;88.80;;;;;;5122930;27;20054;-52
2021/05/14 06:36:01;;;;;;;16.95;11.02;;;10.80;89.00;;;;;;5117748;28;20046;-48
2021/05/14 06:38:35;;;;;;;15.30;8.90;;;10.90;88.20;;;;;;5121235;28;20039;-47
2021/05/14 06:41:01;;;;;;;10.35;7.30;;;10.90;87.70;;;;;;5115791;28;20093;-52
2021/05/14 06:43:27;;;;;;;26.23;20.33;;;10.90;86.90;;;;;;5119837;28;20096;-48
2021/05/14 06:45:53;;;;;;;30.92;21.67;;;11.00;87.30;;;;;;5124421;27;20079;-49
2021/05/14 06:48:19;;;;;;;12.40;7.82;;;11.00;87.50;;;;;;5122292;28;20047;-49
2021/05/14 06:50:45;;;;;;;12.38;6.90;;;11.00;86.60;;;;;;5125219;28;20047;-49
2021/05/14 06:53:12;;;;;;;11.95;9.88;;;10.90;87.20;;;;;;5102883;28;20047;-52
2021/05/14 06:55:39;;;;;;;9.50;6.05;;;11.00;87.70;;;;;;5111007;28;20124;-54
2021/05/14 06:58:05;;;;;;;17.17;10.65;;;11.00;86.80;;;;;;5107695;28;20048;-49
2021/05/14 07:00:32;;;;;;;11.88;7.47;;;10.80;86.60;;;;;;5116826;28;20464;-53
2021/05/14 07:02:59;;;;;;;11.18;6.38;;;11.10;86.00;;;;;;5122400;27;20421;-52
2021/05/14 07:05:27;;;;;;;14.63;8.93;;;11.00;85.80;;;;;;5106333;28;20048;-53
2021/05/14 07:07:56;;;;;;;13.20;7.13;;;11.10;86.20;;;;;;5107085;28;20082;-52
2021/05/14 07:10:23;;;;;;;12.98;6.55;;;11.20;86.10;;;;;;5102273;28;20419;-48
2021/05/14 07:12:50;;;;;;;18.80;13.35;;;11.30;86.10;;;;;;5124310;28;20058;-52
2021/05/14 07:15:16;;;;;;;13.75;9.75;;;11.40;86.30;;;;;;5121971;28;20302;-52
2021/05/14 07:17:43;;;;;;;16.08;6.65;;;11.30;85.70;;;;;;5123861;28;20047;-48
2021/05/14 07:20:10;;;;;;;11.10;5.75;;;11.20;85.60;;;;;;5123618;28;20048;-52
2021/05/14 07:22:36;;;;;;;12.10;6.82;;;11.20;85.60;;;;;;5108262;28;20055;-50
2021/05/14 07:25:07;;;;;;;10.40;5.55;;;11.20;86.20;;;;;;5123037;27;20050;-52
2021/05/14 07:27:33;;;;;;;10.85;7.22;;;11.20;86.30;;;;;;5125695;28;20039;-51
2021/05/14 07:30:02;;;;;;;12.93;6.10;;;11.20;85.50;;;;;;5105344;28;20051;-50
2021/05/14 07:32:33;;;;;;;9.88;5.30;;;11.00;85.70;;;;;;5122263;28;20075;-52
2021/05/14 07:35:00;;;;;;;10.32;6.78;;;11.00;85.40;;;;;;5123534;27;20047;-50
2021/05/14 07:37:32;;;;;;;8.60;5.72;;;10.90;85.90;;;;;;5123407;28;20495;-50
2021/05/14 07:40:00;;;;;;;9.07;5.78;;;11.10;85.70;;;;;;5126655;27;20520;-52
2021/05/14 07:42:26;;;;;;;11.45;5.88;;;11.20;85.30;;;;;;5125874;27;20499;-48
2021/05/14 07:44:52;;;;;;;15.50;6.65;;;11.30;85.20;;;;;;5128725;27;20051;-50
2021/05/14 07:47:18;;;;;;;10.85;5.68;;;11.50;85.90;;;;;;5129553;27;20062;-49
2021/05/14 07:49:44;;;;;;;20.50;12.60;;;11.60;85.40;;;;;;5118890;27;20039;-51
2021/05/14 07:52:10;;;;;;;11.98;6.20;;;11.70;84.80;;;;;;5125901;27;20542;-51
2021/05/14 07:54:36;;;;;;;7.82;5.82;;;11.70;83.90;;;;;;5126981;27;20051;-47
2021/05/14 07:57:04;;;;;;;9.98;6.65;;;11.60;83.80;;;;;;5124525;27;20067;-51
2021/05/14 07:59:30;;;;;;;9.75;6.07;;;11.80;84.80;;;;;;5128548;27;20478;-51
2021/05/14 08:01:57;;;;;;;7.35;4.85;;;11.90;83.70;;;;;;5130484;27;20079;-49
2021/05/14 08:04:23;;;;;;;7.60;4.85;;;12.10;83.70;;;;;;5129870;27;20511;-46
2021/05/14 08:06:49;;;;;;;7.78;4.75;;;12.20;83.40;;;;;;5102634;27;20043;-52
2021/05/14 08:09:22;;;;;;;7.53;4.90;;;12.20;81.80;;;;;;5112222;27;20079;-51
2021/05/14 08:11:50;;;;;;;8.63;5.63;;;12.10;82.10;;;;;;5124830;27;20130;-52
2021/05/14 08:14:18;;;;;;;9.68;4.70;;;12.30;82.30;;;;;;5119040;27;20051;-52
2021/05/14 08:16:44;;;;;;;7.13;4.50;;;12.40;82.90;;;;;;5122591;27;20484;-53
2021/05/14 08:19:13;;;;;;;92.25;76.43;;;12.50;82.20;;;;;;5115604;27;20144;-52
2021/05/14 08:21:46;;;;;;;7.75;5.75;;;12.70;81.80;;;;;;5125458;27;20095;-53
2021/05/14 08:24:13;;;;;;;8.05;4.55;;;12.80;81.10;;;;;;5127146;27;20486;-52
2021/05/14 08:26:49;;;;;;;10.73;5.90;;;12.80;80.70;;;;;;5123008;27;20062;-51
2021/05/14 08:29:16;;;;;;;9.50;5.47;;;12.90;80.10;;;;;;5114005;27;20049;-51
2021/05/14 08:31:42;;;;;;;10.23;5.53;;;12.90;80.20;;;;;;5126732;27;20755;-49
2021/05/14 08:34:11;;;;;;;11.93;7.57;;;12.90;79.80;;;;;;5122519;27;20578;-47
2021/05/14 08:36:39;;;;;;;10.15;5.45;;;12.90;79.30;;;;;;5115060;27;20125;-48
2021/05/14 08:39:06;;;;;;;9.25;5.60;;;13.00;79.60;;;;;;5129925;27;20399;-50
2021/05/14 08:41:36;;;;;;;16.92;11.93;;;13.10;79.70;;;;;;5119704;27;20047;-49
2021/05/14 08:44:05;;;;;;;12.20;5.70;;;13.30;79.70;;;;;;5127226;27;20072;-51
2021/05/14 08:46:39;;;;;;;10.15;4.93;;;13.50;78.80;;;;;;5117009;27;20079;-50
2021/05/14 08:49:06;;;;;;;9.40;5.10;;;13.20;76.90;;;;;;5123613;27;20055;-52
2021/05/14 08:51:37;;;;;;;10.98;5.03;;;13.30;78.70;;;;;;5125604;27;20051;-51
2021/05/14 08:54:09;;;;;;;8.18;4.93;;;13.30;77.40;;;;;;5128329;27;20051;-52
2021/05/14 08:56:35;;;;;;;8.90;5.15;;;13.20;78.30;;;;;;5121962;27;20047;-53
2021/05/14 08:59:02;;;;;;;22.75;8.65;;;13.20;78.60;;;;;;5127849;27;20054;-46
2021/05/14 09:01:30;;;;;;;8.63;4.80;;;13.20;79.60;;;;;;5123929;27;20562;-53
2021/05/14 09:04:02;;;;;;;8.80;5.22;;;13.20;78.60;;;;;;5098733;27;20536;-50
2021/05/14 09:06:33;;;;;;;12.90;5.35;;;13.30;79.30;;;;;;5117803;27;20049;-52
2021/05/14 09:09:05;;;;;;;9.85;5.07;;;13.20;78.70;;;;;;5123769;27;20103;-51
2021/05/14 09:11:37;;;;;;;10.57;4.93;;;13.30;77.60;;;;;;5123359;27;20074;-49
2021/05/14 09:14:44;;;;;;;11.07;5.70;;;13.10;77.20;;;;;;5103439;27;20047;-52
2021/05/14 09:17:13;;;;;;;8.90;5.80;;;13.20;78.60;;;;;;5120080;27;20043;-50
2021/05/14 09:19:56;;;;;;;14.23;6.30;;;13.40;78.50;;;;;;5126730;27;20130;-48
2021/05/14 09:22:23;;;;;;;13.80;6.25;;;13.70;79.00;;;;;;5127808;27;20058;-49
2021/05/14 09:25:02;;;;;;;9.95;5.57;;;13.90;77.60;;;;;;5126454;27;20049;-52
2021/05/14 09:27:37;;;;;;;9.48;5.00;;;13.40;75.30;;;;;;5125222;27;20049;-49
2021/05/14 09:30:08;;;;;;;11.13;6.43;;;13.30;77.00;;;;;;5125985;27;20046;-47
2021/05/14 09:32:38;;;;;;;12.20;6.32;;;13.10;76.00;;;;;;5122739;27;20509;-50
2021/05/14 09:35:06;;;;;;;10.48;5.72;;;13.20;78.00;;;;;;5116432;27;20046;-51
2021/05/14 09:37:33;;;;;;;12.95;5.65;;;13.80;77.30;;;;;;5122960;27;20491;-53
2021/05/14 09:40:15;;;;;;;9.43;5.32;;;14.00;74.20;;;;;;5123204;27;20078;-53
2021/05/14 09:42:43;;;;;;;11.35;6.30;;;14.20;74.90;;;;;;5117251;27;20045;-51
2021/05/14 09:45:26;;;;;;;9.98;5.43;;;14.10;74.00;;;;;;5110157;27;20126;-52
2021/05/14 09:48:14;;;;;;;8.57;6.68;;;13.80;73.20;;;;;;5119167;27;20078;-50
2021/05/14 09:50:40;;;;;;;10.65;5.65;;;14.10;74.90;;;;;;5116538;27;20040;-54
2021/05/14 09:53:11;;;;;;;13.68;6.07;;;14.20;75.40;;;;;;5132470;27;20068;-52
2021/05/14 09:55:39;;;;;;;8.38;6.03;;;13.90;73.10;;;;;;5126919;27;20051;-52
2021/05/14 09:58:15;;;;;;;9.48;5.15;;;14.00;74.10;;;;;;5125488;27;20059;-50
2021/05/14 10:00:41;;;;;;;11.57;7.20;;;14.50;74.20;;;;;;5125498;27;20043;-52
2021/05/14 10:03:09;;;;;;;11.02;5.97;;;14.60;72.90;;;;;;5123171;27;20048;-52
2021/05/14 10:05:37;;;;;;;10.48;5.50;;;14.70;72.90;;;;;;5132111;27;20047;-53
2021/05/14 10:08:07;;;;;;;12.57;7.57;;;14.80;71.90;;;;;;5128570;27;20129;-53
2021/05/14 10:10:53;;;;;;;11.60;6.10;;;15.00;70.80;;;;;;5112639;27;20100;-52
2021/05/14 10:13:20;;;;;;;10.18;6.40;;;14.90;70.70;;;;;;5125840;27;20042;-54
2021/05/14 10:15:48;;;;;;;11.32;6.65;;;15.10;72.00;;;;;;5126213;27;20054;-53
2021/05/14 10:18:19;;;;;;;13.10;9.43;;;15.10;69.80;;;;;;5126924;27;20039;-50
2021/05/14 10:20:51;;;;;;;10.73;6.90;;;15.30;71.80;;;;;;5124796;27;20508;-49
2021/05/14 10:23:30;;;;;;;12.40;6.63;;;15.80;67.40;;;;;;5133682;27;20062;-45
2021/05/14 10:26:06;;;;;;;13.07;9.55;;;15.30;69.60;;;;;;5124899;27;20051;-50
2021/05/14 10:28:38;;;;;;;10.88;6.28;;;15.00;67.90;;;;;;5126515;27;20042;-49
2021/05/14 10:31:05;;;;;;;12.50;6.97;;;15.50;71.50;;;;;;5129055;27;20603;-47
2021/05/14 10:33:50;;;;;;;9.70;6.63;;;15.60;69.40;;;;;;5126278;27;20051;-44
2021/05/14 10:36:21;;;;;;;12.45;7.70;;;15.90;69.10;;;;;;5125760;28;20070;-44
2021/05/14 10:39:15;;;;;;;11.63;7.07;;;16.10;69.50;;;;;;5105939;28;20038;-44
2021/05/14 10:41:47;;;;;;;11.85;6.95;;;16.20;68.10;;;;;;5126015;28;20058;-45
2021/05/14 10:44:13;;;;;;;11.55;6.90;;;16.30;68.60;;;;;;5124289;28;20063;-47
2021/05/14 10:46:45;;;;;;;14.30;6.20;;;16.60;68.80;;;;;;5125468;28;20035;-49
2021/05/14 10:49:16;;;;;;;10.70;6.25;;;16.60;68.90;;;;;;5126140;28;20566;-53
2021/05/14 10:51:50;;;;;;;11.98;7.10;;;16.70;68.10;;;;;;5126459;28;20485;-50
2021/05/14 10:54:38;;;;;;;12.63;6.75;;;17.00;64.80;;;;;;5126394;28;20062;-51
2021/05/14 10:57:05;;;;;;;13.25;7.25;;;16.70;64.80;;;;;;5131386;27;20410;-56
2021/05/14 10:59:38;;;;;;;12.95;7.35;;;16.70;65.40;;;;;;5111040;28;20039;-54
2021/05/14 11:02:28;;;;;;;10.23;6.60;;;16.70;64.40;;;;;;5097228;28;20171;-55
2021/05/14 11:04:56;;;;;;;13.80;7.68;;;17.10;66.20;;;;;;5125336;28;20043;-55
2021/05/14 11:07:39;;;;;;;12.55;7.22;;;17.20;65.20;;;;;;5126099;28;20061;-55
2021/05/14 11:10:29;;;;;;;11.10;6.95;;;17.00;62.10;;;;;;5121188;28;20055;-56
2021/05/14 11:12:57;;;;;;;11.50;7.53;;;16.80;62.00;;;;;;5125173;28;20082;-55
2021/05/14 11:15:35;;;;;;;11.13;8.05;;;16.30;65.10;;;;;;5129586;27;20051;-55
2021/05/14 11:18:07;;;;;;;12.85;8.05;;;16.40;66.60;;;;;;5131049;27;20050;-53
2021/05/14 11:20:48;;;;;;;9.98;7.68;;;16.40;65.70;;;;;;5132130;27;20043;-54
2021/05/14 11:23:39;;;;;;;13.90;8.20;;;16.90;66.40;;;;;;5130851;27;20074;-55
2021/05/14 11:26:07;;;;;;;13.50;8.23;;;17.00;65.40;;;;;;5134030;27;20043;-55
2021/05/14 11:28:51;;;;;;;13.68;8.85;;;17.10;65.90;;;;;;5130932;27;20055;-53
2021/05/14 11:31:23;;;;;;;12.00;7.55;;;16.60;62.40;;;;;;5130051;27;20058;-54
2021/05/14 11:33:56;;;;;;;11.00;7.47;;;16.80;65.00;;;;;;5124227;27;20047;-55
2021/05/14 11:36:23;;;;;;;14.97;9.53;;;16.30;64.60;;;;;;5124320;27;20492;-59
2021/05/14 11:38:56;;;;;;;14.65;10.13;;;16.00;66.20;;;;;;5128190;27;20451;-60
2021/05/14 11:41:27;;;;;;;12.18;8.02;;;16.20;67.40;;;;;;5127863;27;20050;-58
2021/05/14 11:44:04;;;;;;;9.68;7.32;;;16.20;66.20;;;;;;5126188;27;20542;-62
2021/05/14 11:46:56;;;;;;;14.40;11.38;;;16.30;67.00;;;;;;5113288;27;20128;-61
2021/05/14 11:49:42;;;;;;;12.73;10.55;;;16.00;66.60;;;;;;5099281;27;20058;-57
2021/05/14 11:52:11;;;;;;;11.43;9.60;;;15.80;68.70;;;;;;5126846;27;20084;-59
2021/05/14 11:55:06;;;;;;;15.20;9.82;;;15.70;68.30;;;;;;5125869;27;20078;-57
2021/05/14 11:57:32;;;;;;;15.23;10.13;;;15.70;69.00;;;;;;5120995;27;20522;-53
2021/05/14 11:59:59;;;;;;;13.85;9.38;;;15.30;69.00;;;;;;5125151;27;20043;-58
2021/05/14 12:02:40;;;;;;;12.05;9.68;;;15.80;68.20;;;;;;5119371;27;20040;-53
2021/05/14 12:05:08;;;;;;;10.40;8.63;;;15.60;68.30;;;;;;5110027;27;20051;-58
2021/05/14 12:07:34;;;;;;;10.52;8.27;;;15.60;68.40;;;;;;5102434;27;20039;-58
2021/05/14 12:10:06;;;;;;;14.30;8.35;;;15.60;69.00;;;;;;5123273;27;20122;-58
2021/05/14 12:12:32;;;;;;;15.00;7.65;;;15.60;68.80;;;;;;5118460;27;20275;-57
2021/05/14 12:15:14;;;;;;;13.73;8.00;;;15.60;68.10;;;;;;5132189;27;20047;-57
2021/05/14 12:17:40;;;;;;;31.92;25.95;;;15.50;67.60;;;;;;5126450;27;20123;-56
2021/05/14 12:20:37;;;;;;;15.90;9.55;;;15.30;67.90;;;;;;5127681;27;20509;-56
2021/05/14 12:23:07;;;;;;;16.08;9.15;;;15.40;68.50;;;;;;5117097;27;20043;-57
2021/05/14 12:25:49;;;;;;;15.00;9.20;;;15.50;68.40;;;;;;5129374;27;20050;-57
2021/05/14 12:28:42;;;;;;;12.80;7.25;;;15.50;68.80;;;;;;5108562;27;20070;-56
2021/05/14 12:31:29;;;;;;;12.63;8.10;;;15.70;67.30;;;;;;5129209;27;20888;-58
2021/05/14 12:34:07;;;;;;;15.30;8.50;;;15.50;67.40;;;;;;5128268;27;20055;-57
2021/05/14 12:36:36;;;;;;;15.65;11.38;;;15.60;67.00;;;;;;5128723;27;20059;-57
2021/05/14 12:39:09;;;;;;;13.88;7.90;;;15.40;68.80;;;;;;5106779;27;20043;-56
2021/05/14 12:41:38;;;;;;;13.18;8.98;;;15.50;68.20;;;;;;5128736;27;20074;-54
2021/05/14 12:44:09;;;;;;;14.48;8.77;;;15.60;68.10;;;;;;5134788;27;20045;-57
2021/05/14 12:46:36;;;;;;;14.15;8.20;;;15.60;68.90;;;;;;5128210;27;20047;-56
2021/05/14 12:49:20;;;;;;;14.18;8.18;;;16.00;68.10;;;;;;5131139;27;20089;-54
2021/05/14 12:51:57;;;;;;;12.13;7.45;;;16.10;66.50;;;;;;5126138;27;20825;-56
2021/05/14 12:54:23;;;;;;;13.57;8.15;;;15.90;67.70;;;;;;5127431;27;20061;-57